Time;durP1;ratioP1;P1;durP2;ratioP2;P2;SDS_P1;SDS_P2;PMS_P1;PMS_P2;Temp;Humidity;BMP_temperature;BMP_pressure;BME280_temperature;BME280_humidity;BME280_pressure;Samples;Min_cycle;Max_cycle;Signal;HPM_P1;HPM_P2
2023/02/06 00:00:27;;;;;;;35.53;19.50;;;-4.00;99.90;;;;;;2093921;28;20068;-77
2023/02/06 00:01:29;;;;;;;35.78;20.27;;;-4.00;99.90;;;;;;2080959;28;20123;-77
2023/02/06 00:02:30;;;;;;;35.83;20.30;;;-4.00;99.90;;;;;;2086533;28;20447;-77
2023/02/06 00:03:30;;;;;;;34.65;19.30;;;-4.00;99.90;;;;;;2086924;28;20029;-77
2023/02/06 00:04:31;;;;;;;34.80;19.58;;;-4.00;99.90;;;;;;2084319;28;20443;-77
2023/02/06 00:05:32;;;;;;;36.15;19.55;;;-4.00;99.90;;;;;;2093711;28;20097;-77
2023/02/06 00:06:33;;;;;;;34.97;19.83;;;-4.00;99.90;;;;;;2085514;28;20013;-76
2023/02/06 00:07:33;;;;;;;35.17;20.02;;;-4.00;99.90;;;;;;2085850;28;20032;-77
2023/02/06 00:08:34;;;;;;;34.80;19.50;;;-4.00;99.90;;;;;;2085663;28;20033;-76
2023/02/06 00:09:34;;;;;;;34.53;19.48;;;-4.00;99.90;;;;;;2083823;28;20033;-75
2023/02/06 00:10:35;;;;;;;34.10;19.83;;;-4.10;99.90;;;;;;2088894;28;20056;-78
2023/02/06 00:11:36;;;;;;;34.83;19.27;;;-4.10;99.90;;;;;;2085497;28;20013;-76
2023/02/06 00:12:36;;;;;;;34.45;18.83;;;-4.10;99.90;;;;;;2089127;28;20475;-77
2023/02/06 00:13:37;;;;;;;34.55;19.15;;;-4.10;99.90;;;;;;2081683;28;20547;-77
2023/02/06 00:14:40;;;;;;;34.22;19.42;;;-4.10;99.90;;;;;;2084994;28;20025;-76
2023/02/06 00:15:41;;;;;;;36.67;20.00;;;-4.10;99.90;;;;;;2087801;28;20052;-77
2023/02/06 00:16:42;;;;;;;36.28;20.23;;;-4.10;99.90;;;;;;2088466;28;20420;-77
2023/02/06 00:17:42;;;;;;;33.53;18.73;;;-4.10;99.90;;;;;;2090334;28;20021;-77
2023/02/06 00:18:43;;;;;;;36.25;19.95;;;-4.10;99.90;;;;;;2080069;28;20066;-77
2023/02/06 00:19:44;;;;;;;36.10;20.40;;;-4.10;99.90;;;;;;2090307;28;20444;-76
2023/02/06 00:20:44;;;;;;;34.42;19.73;;;-4.10;99.90;;;;;;2084751;28;20378;-77
2023/02/06 00:21:45;;;;;;;36.38;20.92;;;-4.10;99.90;;;;;;2091187;28;20020;-77
2023/02/06 00:22:45;;;;;;;35.05;19.75;;;-4.10;99.90;;;;;;2090370;28;20028;-77
2023/02/06 00:23:51;;;;;;;34.53;20.65;;;-4.10;99.90;;;;;;2091526;28;20032;-76
2023/02/06 00:24:51;;;;;;;37.40;20.13;;;-4.10;99.90;;;;;;2085308;28;20471;-76
2023/02/06 00:25:52;;;;;;;34.55;19.90;;;-4.10;99.90;;;;;;2073460;28;20033;-77
2023/02/06 00:26:52;;;;;;;36.53;21.08;;;-4.10;99.90;;;;;;2072225;28;20519;-77
2023/02/06 00:27:53;;;;;;;33.25;19.05;;;-4.20;99.90;;;;;;2077733;28;20029;-77
2023/02/06 00:28:54;;;;;;;34.60;20.60;;;-4.20;99.90;;;;;;2075384;28;20025;-77
2023/02/06 00:29:54;;;;;;;32.47;19.63;;;-4.20;99.90;;;;;;2078822;28;20792;-77
2023/02/06 00:30:55;;;;;;;35.92;19.85;;;-4.20;99.90;;;;;;2078042;28;20484;-77
2023/02/06 00:31:55;;;;;;;31.27;18.65;;;-4.20;99.90;;;;;;2071240;28;20745;-77
2023/02/06 00:32:56;;;;;;;30.23;17.45;;;-4.20;99.90;;;;;;2069938;28;20064;-77
2023/02/06 00:33:56;;;;;;;29.60;17.45;;;-4.20;99.90;;;;;;2063268;28;20026;-74
2023/02/06 00:34:57;;;;;;;31.13;16.70;;;-4.20;99.90;;;;;;2074580;28;20021;-78
2023/02/06 00:35:57;;;;;;;31.70;17.60;;;-4.20;99.90;;;;;;2087029;28;20033;-77
2023/02/06 00:36:58;;;;;;;33.92;17.23;;;-4.20;99.90;;;;;;2077021;28;20060;-77
2023/02/06 00:37:59;;;;;;;29.92;16.52;;;-4.20;99.90;;;;;;2076998;28;20040;-77
2023/02/06 00:39:01;;;;;;;32.25;16.48;;;-4.20;99.90;;;;;;2089948;28;20025;-77
2023/02/06 00:40:02;;;;;;;30.52;16.95;;;-4.20;99.90;;;;;;2085413;28;20413;-77
2023/02/06 00:41:02;;;;;;;29.70;16.33;;;-4.20;99.90;;;;;;2086884;28;20057;-77
2023/02/06 00:42:03;;;;;;;27.50;16.20;;;-4.20;99.90;;;;;;2065116;28;20390;-76
2023/02/06 00:43:04;;;;;;;29.42;15.77;;;-4.20;99.90;;;;;;2076674;28;20133;-76
2023/02/06 00:44:05;;;;;;;28.48;16.10;;;-4.20;99.90;;;;;;2072574;28;20038;-76
2023/02/06 00:45:06;;;;;;;29.08;16.50;;;-4.20;99.90;;;;;;2083278;28;20481;-76
2023/02/06 00:46:07;;;;;;;26.92;15.95;;;-4.20;99.90;;;;;;2083659;28;20047;-76
2023/02/06 00:47:07;;;;;;;28.92;16.20;;;-4.30;99.90;;;;;;2090967;28;20078;-76
2023/02/06 00:48:09;;;;;;;30.80;17.77;;;-4.20;99.90;;;;;;2082539;28;20032;-77
2023/02/06 00:49:10;;;;;;;33.17;17.58;;;-4.20;99.90;;;;;;2083492;28;20107;-77
2023/02/06 00:50:10;;;;;;;30.83;17.30;;;-4.30;99.90;;;;;;2072876;28;20037;-76
2023/02/06 00:51:11;;;;;;;30.83;17.00;;;-4.20;99.90;;;;;;2085351;28;20056;-77
2023/02/06 00:52:11;;;;;;;32.10;18.13;;;-4.30;99.90;;;;;;2082098;28;20041;-76
2023/02/06 00:53:12;;;;;;;31.00;18.63;;;-4.30;99.90;;;;;;2091023;28;20047;-76
2023/02/06 00:54:13;;;;;;;32.55;19.30;;;-4.30;99.90;;;;;;2095275;28;20676;-76
2023/02/06 00:55:15;;;;;;;34.28;18.63;;;-4.30;99.90;;;;;;2088737;28;20032;-76
2023/02/06 00:56:15;;;;;;;35.00;19.40;;;-4.30;99.90;;;;;;2077457;28;20319;-76
2023/02/06 00:57:16;;;;;;;32.35;19.70;;;-4.30;99.90;;;;;;2071450;28;20492;-76
2023/02/06 00:58:16;;;;;;;35.45;19.35;;;-4.30;99.90;;;;;;2071550;28;20030;-76
2023/02/06 00:59:17;;;;;;;30.58;18.83;;;-4.30;99.90;;;;;;2078069;28;20039;-77
2023/02/06 01:00:18;;;;;;;32.40;18.83;;;-4.30;99.90;;;;;;2088849;28;20078;-76
2023/02/06 01:01:19;;;;;;;30.77;17.80;;;-4.30;99.90;;;;;;2093389;28;20033;-77
2023/02/06 01:02:20;;;;;;;30.90;17.52;;;-4.30;99.90;;;;;;2091693;28;20036;-76
2023/02/06 01:03:20;;;;;;;29.85;16.92;;;-4.30;99.90;;;;;;2092930;28;20146;-77
2023/02/06 01:04:21;;;;;;;32.28;17.80;;;-4.30;99.90;;;;;;2091061;28;20051;-76
2023/02/06 01:05:21;;;;;;;34.08;18.02;;;-4.30;99.90;;;;;;2092359;28;20024;-77
2023/02/06 01:06:22;;;;;;;31.70;18.75;;;-4.30;99.90;;;;;;2090155;28;20062;-76
2023/02/06 01:07:24;;;;;;;32.75;18.85;;;-4.30;99.90;;;;;;2097195;28;20036;-77
2023/02/06 01:08:25;;;;;;;34.30;19.10;;;-4.30;99.90;;;;;;2093481;28;20035;-76
2023/02/06 01:09:26;;;;;;;34.83;19.27;;;-4.30;99.90;;;;;;2079577;28;20029;-75
2023/02/06 01:10:26;;;;;;;32.70;19.13;;;-4.30;99.90;;;;;;2087909;28;20021;-77
2023/02/06 01:11:27;;;;;;;34.03;18.90;;;-4.30;99.90;;;;;;2083328;28;20112;-76
2023/02/06 01:12:27;;;;;;;31.15;17.95;;;-4.30;99.90;;;;;;2090811;28;20075;-76
2023/02/06 01:13:28;;;;;;;31.88;17.42;;;-4.30;99.90;;;;;;2081842;28;20037;-77
2023/02/06 01:14:28;;;;;;;28.83;17.52;;;-4.30;99.90;;;;;;2080219;28;20562;-76
2023/02/06 01:15:29;;;;;;;33.10;17.80;;;-4.30;99.90;;;;;;2088061;28;20033;-76
2023/02/06 01:16:30;;;;;;;28.08;16.85;;;-4.30;99.90;;;;;;2097813;28;20050;-76
2023/02/06 01:17:32;;;;;;;30.45;17.67;;;-4.30;99.90;;;;;;2090731;28;20115;-76
2023/02/06 01:18:32;;;;;;;29.33;16.95;;;-4.30;99.90;;;;;;2088645;28;20111;-75
2023/02/06 01:19:33;;;;;;;28.33;16.85;;;-4.30;99.90;;;;;;2086458;28;20024;-75
2023/02/06 01:20:33;;;;;;;31.05;16.90;;;-4.30;99.90;;;;;;2082630;28;20033;-76
2023/02/06 01:21:35;;;;;;;29.52;16.73;;;-4.30;99.90;;;;;;2080391;28;20124;-76
2023/02/06 01:22:36;;;;;;;29.10;16.35;;;-4.30;99.90;;;;;;2081136;28;20223;-75
2023/02/06 01:23:38;;;;;;;30.05;16.02;;;-4.30;99.90;;;;;;2093766;28;20043;-76
2023/02/06 01:24:39;;;;;;;28.70;16.30;;;-4.30;99.90;;;;;;2084372;28;20037;-76
2023/02/06 01:25:40;;;;;;;29.95;16.85;;;-4.30;99.90;;;;;;2073465;28;20104;-77
2023/02/06 01:26:40;;;;;;;31.60;17.15;;;-4.30;99.90;;;;;;2082309;28;20033;-76
2023/02/06 01:27:41;;;;;;;30.77;17.52;;;-4.30;99.90;;;;;;2092795;28;20028;-76
2023/02/06 01:28:44;;;;;;;30.25;16.95;;;-4.30;99.90;;;;;;2086692;28;20491;-77
2023/02/06 01:29:44;;;;;;;29.17;16.85;;;-4.30;99.90;;;;;;2078315;28;20033;-77
2023/02/06 01:30:45;;;;;;;27.73;16.40;;;-4.30;99.90;;;;;;2078264;28;20059;-76
2023/02/06 01:31:45;;;;;;;28.00;16.45;;;-4.30;99.90;;;;;;2088712;28;20013;-77
2023/02/06 01:32:46;;;;;;;29.90;16.88;;;-4.30;99.90;;;;;;2092817;28;20109;-77
2023/02/06 01:33:50;;;;;;;29.65;16.67;;;-4.20;99.90;;;;;;2082369;28;20114;-75
2023/02/06 01:34:51;;;;;;;29.80;16.67;;;-4.20;99.90;;;;;;2084193;28;20058;-77
2023/02/06 01:35:55;;;;;;;29.63;16.63;;;-4.20;99.90;;;;;;2090668;28;20053;-77
2023/02/06 01:36:56;;;;;;;31.13;17.08;;;-4.20;99.90;;;;;;2084193;28;20036;-77
2023/02/06 01:37:56;;;;;;;30.30;17.08;;;-4.30;99.90;;;;;;2082371;28;20051;-76
2023/02/06 01:38:57;;;;;;;28.65;16.55;;;-4.20;99.90;;;;;;2088362;28;20039;-75
2023/02/06 01:39:58;;;;;;;27.67;16.52;;;-4.30;99.90;;;;;;2095561;28;20652;-76
2023/02/06 01:40:59;;;;;;;28.00;15.75;;;-4.30;99.90;;;;;;2095012;28;20127;-77
2023/02/06 01:42:00;;;;;;;28.65;16.17;;;-4.30;99.90;;;;;;2088805;28;20115;-76
2023/02/06 01:43:01;;;;;;;27.92;16.23;;;-4.30;99.90;;;;;;2082335;28;20032;-77
2023/02/06 01:44:21;;;;;;;28.73;15.80;;;-4.30;99.90;;;;;;2084394;28;20037;-76
2023/02/06 01:45:24;;;;;;;27.25;15.85;;;-4.30;99.90;;;;;;2080000;28;20441;-77
2023/02/06 01:46:25;;;;;;;28.20;16.20;;;-4.30;99.90;;;;;;2085259;28;20036;-76
2023/02/06 01:47:27;;;;;;;26.08;15.43;;;-4.30;99.90;;;;;;2096031;28;20032;-76
2023/02/06 01:48:44;;;;;;;28.75;16.45;;;-4.30;99.90;;;;;;2090898;28;20036;-75
2023/02/06 01:49:48;;;;;;;27.40;15.30;;;-4.30;99.90;;;;;;2097325;28;20166;-76
2023/02/06 01:50:54;;;;;;;26.30;14.75;;;-4.20;99.90;;;;;;2091369;28;20082;-77
2023/02/06 01:52:03;;;;;;;24.45;14.52;;;-4.20;99.90;;;;;;2097122;28;20412;-76
2023/02/06 01:53:05;;;;;;;25.98;14.25;;;-4.20;99.90;;;;;;2096216;28;20808;-77
2023/02/06 01:54:07;;;;;;;27.77;15.10;;;-4.20;99.90;;;;;;2094150;28;20061;-77
2023/02/06 01:55:08;;;;;;;28.05;14.55;;;-4.20;99.90;;;;;;2077428;28;20045;-77
2023/02/06 01:56:09;;;;;;;27.20;14.70;;;-4.20;99.90;;;;;;2081413;28;20510;-76
2023/02/06 01:57:11;;;;;;;25.73;14.40;;;-4.20;99.90;;;;;;2092763;28;20120;-77
2023/02/06 01:58:18;;;;;;;25.17;14.10;;;-4.10;99.90;;;;;;2082506;28;20116;-78
2023/02/06 01:59:19;;;;;;;25.92;14.23;;;-4.10;99.90;;;;;;2085086;28;20021;-77
2023/02/06 02:00:20;;;;;;;25.48;14.88;;;-4.10;99.90;;;;;;2074751;28;20099;-77
2023/02/06 02:01:21;;;;;;;27.55;14.05;;;-4.10;99.90;;;;;;2082709;28;20122;-77
2023/02/06 02:02:26;;;;;;;23.58;13.85;;;-4.10;99.90;;;;;;2088847;28;20025;-79
2023/02/06 02:03:28;;;;;;;22.33;13.43;;;-4.10;99.90;;;;;;2089367;28;20052;-76
2023/02/06 02:04:31;;;;;;;26.08;14.60;;;-4.00;99.90;;;;;;2094921;28;20468;-77
2023/02/06 02:05:33;;;;;;;23.90;14.20;;;-4.00;99.90;;;;;;2094905;28;20032;-78
2023/02/06 02:06:34;;;;;;;25.58;14.52;;;-4.00;99.90;;;;;;2095135;28;20036;-77
2023/02/06 02:07:40;;;;;;;24.65;14.88;;;-4.00;99.90;;;;;;2090426;28;20087;-77
2023/02/06 02:08:52;;;;;;;26.58;14.70;;;-4.00;99.90;;;;;;2086990;28;20029;-77
2023/02/06 02:09:53;;;;;;;25.10;14.05;;;-4.00;99.90;;;;;;2095048;28;20039;-77
2023/02/06 02:10:54;;;;;;;23.90;13.95;;;-4.00;99.90;;;;;;2096534;28;20016;-77
2023/02/06 02:11:54;;;;;;;25.00;14.38;;;-4.00;99.90;;;;;;2086278;28;20489;-77
2023/02/06 02:12:55;;;;;;;24.17;15.07;;;-3.90;99.90;;;;;;2074490;28;20037;-77
2023/02/06 02:13:56;;;;;;;25.38;14.48;;;-3.90;99.90;;;;;;2075702;28;20081;-77
2023/02/06 02:15:00;;;;;;;23.48;13.95;;;-3.90;99.90;;;;;;2087926;28;20507;-78
2023/02/06 02:16:44;;;;;;;24.73;14.10;;;-3.90;99.90;;;;;;2073891;28;20057;-77
2023/02/06 02:18:01;;;;;;;25.30;13.57;;;-3.90;99.90;;;;;;2062451;28;20637;-77
2023/02/06 02:19:27;;;;;;;25.73;13.52;;;-3.90;99.90;;;;;;2079056;28;20653;-77
2023/02/06 02:21:02;;;;;;;23.13;12.95;;;-4.00;99.90;;;;;;2088850;28;20032;-77
2023/02/06 02:22:18;;;;;;;22.67;13.40;;;-4.00;99.90;;;;;;2088441;28;20032;-77
2023/02/06 02:23:47;;;;;;;21.77;12.52;;;-4.00;99.90;;;;;;2097905;28;20040;-76
2023/02/06 02:24:58;;;;;;;20.30;12.07;;;-4.00;99.90;;;;;;2086790;28;20318;-77
2023/02/06 02:26:23;;;;;;;21.75;12.30;;;-4.00;99.90;;;;;;2091905;28;20075;-78
2023/02/06 02:27:38;;;;;;;22.90;12.68;;;-4.00;99.90;;;;;;2096442;28;20439;-77
2023/02/06 02:29:22;;;;;;;21.70;12.38;;;-4.00;99.90;;;;;;2088577;28;20028;-77
2023/02/06 02:30:43;;;;;;;22.88;12.75;;;-4.00;99.90;;;;;;2088332;28;20797;-76
2023/02/06 02:32:20;;;;;;;24.38;13.05;;;-4.10;99.90;;;;;;2084485;28;20025;-76
2023/02/06 02:33:47;;;;;;;25.15;13.35;;;-3.90;99.90;;;;;;2076958;28;20491;-76
2023/02/06 02:35:02;;;;;;;23.80;12.85;;;-3.80;99.90;;;;;;2051693;28;20566;-76
2023/02/06 02:36:14;;;;;;;24.67;12.40;;;-3.80;99.90;;;;;;2090204;28;20016;-76
2023/02/06 02:37:43;;;;;;;20.58;12.20;;;-3.90;99.90;;;;;;2088865;28;20557;-77
2023/02/06 02:39:12;;;;;;;24.83;12.40;;;-3.90;99.90;;;;;;2089372;28;20106;-76
2023/02/06 02:40:34;;;;;;;23.58;12.88;;;-3.90;99.90;;;;;;2077933;28;20066;-76
2023/02/06 02:42:01;;;;;;;24.55;13.18;;;-3.90;99.90;;;;;;2089601;28;20493;-77
2023/02/06 02:43:16;;;;;;;25.35;12.82;;;-4.00;99.90;;;;;;2051871;28;20599;-77
2023/02/06 02:44:46;;;;;;;24.90;12.65;;;-4.00;99.90;;;;;;2070272;28;20036;-76
2023/02/06 02:45:53;;;;;;;24.77;13.30;;;-4.00;99.90;;;;;;2082363;28;20033;-76
2023/02/06 02:46:57;;;;;;;25.52;13.57;;;-4.00;99.90;;;;;;2085927;28;20471;-76
2023/02/06 02:48:11;;;;;;;24.38;12.93;;;-4.00;99.90;;;;;;2080719;28;20037;-76
2023/02/06 02:49:16;;;;;;;24.38;13.13;;;-4.10;99.90;;;;;;2085306;28;20021;-75
2023/02/06 02:50:18;;;;;;;23.60;12.77;;;-4.10;99.90;;;;;;2083874;28;20024;-74
2023/02/06 02:51:19;;;;;;;20.50;12.20;;;-4.10;99.90;;;;;;2088381;28;20021;-75
2023/02/06 02:52:20;;;;;;;21.75;11.90;;;-4.10;99.90;;;;;;2092810;28;20628;-88
2023/02/06 02:53:21;;;;;;;23.65;11.75;;;-4.10;99.90;;;;;;2090404;28;20033;-76
2023/02/06 02:54:21;;;;;;;20.90;11.63;;;-4.10;99.90;;;;;;2084135;28;20485;-76
2023/02/06 02:55:22;;;;;;;20.15;11.20;;;-4.10;99.90;;;;;;2083670;28;20033;-76
2023/02/06 02:56:29;;;;;;;20.85;11.48;;;-4.10;99.90;;;;;;2086287;28;20112;-76
2023/02/06 02:57:31;;;;;;;20.92;11.88;;;-4.10;99.90;;;;;;2099760;28;20083;-77
2023/02/06 02:58:33;;;;;;;21.10;11.77;;;-4.10;99.90;;;;;;2085383;28;20024;-76
2023/02/06 02:59:36;;;;;;;23.45;12.32;;;-4.20;99.90;;;;;;2089376;28;20023;-76
2023/02/06 03:00:47;;;;;;;25.80;13.00;;;-4.20;99.90;;;;;;2092559;28;20460;-77
2023/02/06 03:02:05;;;;;;;26.05;12.80;;;-4.20;99.90;;;;;;2093999;28;20039;-77
2023/02/06 03:03:09;;;;;;;29.58;13.43;;;-4.20;99.90;;;;;;2089338;28;20028;-77
2023/02/06 03:04:17;;;;;;;24.80;12.50;;;-4.20;99.90;;;;;;2089056;28;20400;-77
2023/02/06 03:05:21;;;;;;;24.08;12.20;;;-4.30;99.90;;;;;;2084545;28;21339;-77
2023/02/06 03:06:59;;;;;;;26.73;13.48;;;-4.30;99.90;;;;;;2084198;28;20025;-77
2023/02/06 03:08:20;;;;;;;25.08;12.32;;;-4.30;99.90;;;;;;2087213;28;20040;-78
2023/02/06 03:09:47;;;;;;;23.77;12.35;;;-4.30;99.90;;;;;;2077998;28;20027;-77
2023/02/06 03:11:10;;;;;;;22.73;11.73;;;-4.30;99.90;;;;;;2071662;28;20029;-77
2023/02/06 03:12:37;;;;;;;21.08;11.23;;;-4.30;99.90;;;;;;2083098;28;20037;-77
2023/02/06 03:13:47;;;;;;;21.48;11.48;;;-4.30;99.90;;;;;;2086958;28;20743;-78
2023/02/06 03:14:56;;;;;;;22.70;12.32;;;-4.30;99.90;;;;;;2091155;28;20086;-77
2023/02/06 03:16:12;;;;;;;25.48;12.10;;;-4.30;99.90;;;;;;2087757;28;20487;-77
2023/02/06 03:17:17;;;;;;;23.05;12.10;;;-4.20;99.90;;;;;;2099058;28;20024;-77
2023/02/06 03:18:28;;;;;;;25.77;13.07;;;-4.20;99.90;;;;;;2087067;28;20021;-77
2023/02/06 03:19:34;;;;;;;27.98;13.43;;;-4.20;99.90;;;;;;2089209;28;20179;-78
2023/02/06 03:20:39;;;;;;;27.40;13.02;;;-4.20;99.90;;;;;;2090210;28;20036;-77
2023/02/06 03:21:43;;;;;;;25.48;13.00;;;-4.20;99.90;;;;;;2089794;28;20263;-78
2023/02/06 03:22:47;;;;;;;24.95;13.25;;;-4.20;99.90;;;;;;2076934;28;20633;-78
2023/02/06 03:23:53;;;;;;;26.10;13.38;;;-4.20;99.90;;;;;;2076072;28;20127;-76
2023/02/06 03:24:56;;;;;;;23.20;12.65;;;-4.20;99.90;;;;;;2075073;28;20053;-75
2023/02/06 03:26:00;;;;;;;23.65;12.90;;;-4.20;99.90;;;;;;2078044;28;20037;-76
2023/02/06 03:27:07;;;;;;;22.38;12.48;;;-4.20;99.90;;;;;;2083862;28;20033;-76
2023/02/06 03:28:14;;;;;;;22.35;12.32;;;-4.20;99.90;;;;;;2094372;28;20058;-76
2023/02/06 03:29:17;;;;;;;21.50;12.02;;;-4.20;99.90;;;;;;2089668;28;20031;-76
2023/02/06 03:30:20;;;;;;;22.70;12.23;;;-4.20;99.90;;;;;;2083300;28;20434;-77
2023/02/06 03:31:51;;;;;;;23.20;13.00;;;-4.20;99.90;;;;;;2091378;28;20036;-76
2023/02/06 03:32:57;;;;;;;22.50;12.43;;;-4.10;99.90;;;;;;2092778;28;20475;-78
2023/02/06 03:34:15;;;;;;;22.50;12.82;;;-4.20;99.90;;;;;;2097767;28;20032;-76
2023/02/06 03:35:19;;;;;;;22.10;12.88;;;-4.10;99.90;;;;;;2084363;28;20120;-76
2023/02/06 03:36:20;;;;;;;24.02;12.75;;;-4.10;99.90;;;;;;2087962;28;20229;-77
2023/02/06 03:37:21;;;;;;;24.73;13.32;;;-4.10;99.90;;;;;;2096377;28;20027;-77
2023/02/06 03:38:23;;;;;;;22.52;13.00;;;-4.10;99.90;;;;;;2096289;28;20549;-77
2023/02/06 03:39:24;;;;;;;21.17;12.48;;;-4.10;99.90;;;;;;2089135;28;20134;-77
2023/02/06 03:40:26;;;;;;;22.83;13.45;;;-4.10;99.90;;;;;;2093281;28;20084;-77
2023/02/06 03:41:32;;;;;;;22.60;12.70;;;-4.10;99.90;;;;;;2095338;28;20062;-77
2023/02/06 03:42:37;;;;;;;23.63;13.23;;;-4.10;99.90;;;;;;2086497;28;20044;-77
2023/02/06 03:43:40;;;;;;;23.13;12.73;;;-4.10;99.90;;;;;;2087291;28;20492;-77
2023/02/06 03:44:46;;;;;;;21.90;12.85;;;-4.10;99.90;;;;;;2098030;28;20031;-77
2023/02/06 03:45:55;;;;;;;23.00;12.73;;;-4.10;99.90;;;;;;2095565;28;20040;-76
2023/02/06 03:46:58;;;;;;;21.58;12.23;;;-4.10;99.90;;;;;;2095450;28;20090;-76
2023/02/06 03:48:10;;;;;;;22.60;12.65;;;-4.10;99.90;;;;;;2093743;28;20082;-76
2023/02/06 03:49:14;;;;;;;23.52;12.85;;;-4.10;99.90;;;;;;2092901;28;20385;-77
2023/02/06 03:50:16;;;;;;;23.40;13.02;;;-4.10;99.90;;;;;;2083591;28;20020;-77
2023/02/06 03:51:30;;;;;;;26.08;13.63;;;-4.10;99.90;;;;;;2085521;28;20511;-77
2023/02/06 03:52:36;;;;;;;23.70;13.10;;;-4.10;99.90;;;;;;2098070;28;20035;-76
2023/02/06 03:53:38;;;;;;;25.90;13.32;;;-4.10;99.90;;;;;;2090387;28;20428;-76
2023/02/06 03:54:42;;;;;;;23.92;13.40;;;-4.20;99.90;;;;;;2085188;28;20563;-77
2023/02/06 03:55:46;;;;;;;23.30;12.68;;;-4.20;99.90;;;;;;2079096;28;20067;-76
2023/02/06 03:56:52;;;;;;;23.63;13.48;;;-4.20;99.90;;;;;;2083728;28;20101;-76
2023/02/06 03:57:59;;;;;;;24.38;13.48;;;-4.20;99.90;;;;;;2088988;28;20052;-77
2023/02/06 03:59:00;;;;;;;24.77;13.48;;;-4.20;99.90;;;;;;2082904;28;20071;-77
2023/02/06 04:00:00;;;;;;;25.63;14.07;;;-4.20;99.90;;;;;;2087051;28;20017;-76
2023/02/06 04:01:04;;;;;;;24.75;13.55;;;-4.20;99.90;;;;;;2078509;28;20056;-77
2023/02/06 04:02:05;;;;;;;24.77;13.52;;;-4.20;99.90;;;;;;2068589;28;20814;-77
2023/02/06 04:03:09;;;;;;;25.15;13.93;;;-4.20;99.90;;;;;;2088494;28;20029;-76
2023/02/06 04:04:09;;;;;;;23.20;13.10;;;-4.20;99.90;;;;;;2078764;28;20037;-76
2023/02/06 04:05:10;;;;;;;25.10;13.45;;;-4.20;99.90;;;;;;2085207;28;20028;-77
2023/02/06 04:06:11;;;;;;;23.58;13.00;;;-4.20;99.90;;;;;;2078136;28;20033;-76
2023/02/06 04:07:20;;;;;;;25.30;13.02;;;-4.20;99.90;;;;;;2078436;28;20500;-77
2023/02/06 04:08:21;;;;;;;25.00;13.73;;;-4.20;99.90;;;;;;2088141;28;20037;-77
2023/02/06 04:09:21;;;;;;;26.05;13.70;;;-4.20;99.90;;;;;;2086913;28;20067;-76
2023/02/06 04:10:23;;;;;;;22.58;13.55;;;-4.30;99.90;;;;;;2092978;28;20036;-77
2023/02/06 04:11:24;;;;;;;24.45;14.00;;;-4.30;99.90;;;;;;2076241;28;20083;-77
2023/02/06 04:12:24;;;;;;;25.33;13.80;;;-4.30;99.90;;;;;;2087718;28;20106;-77
2023/02/06 04:13:25;;;;;;;28.55;13.70;;;-4.20;99.90;;;;;;2087929;28;20024;-77
2023/02/06 04:14:25;;;;;;;24.98;13.88;;;-4.30;99.90;;;;;;2082734;28;20033;-76
2023/02/06 04:15:26;;;;;;;26.60;13.57;;;-4.20;99.90;;;;;;2081159;28;20021;-77
2023/02/06 04:16:27;;;;;;;24.83;13.55;;;-4.20;99.90;;;;;;2078372;28;20606;-77
2023/02/06 04:17:27;;;;;;;25.75;13.90;;;-4.20;99.90;;;;;;2086669;28;20037;-77
2023/02/06 04:18:28;;;;;;;24.55;13.90;;;-4.20;99.90;;;;;;2086131;28;20087;-77
2023/02/06 04:19:29;;;;;;;26.98;14.07;;;-4.30;99.90;;;;;;2081268;28;20592;-77
2023/02/06 04:20:30;;;;;;;27.58;14.68;;;-4.30;99.90;;;;;;2076219;28;20040;-77
2023/02/06 04:21:30;;;;;;;22.90;13.43;;;-4.20;99.90;;;;;;2078672;28;20090;-77
2023/02/06 04:22:31;;;;;;;24.65;14.05;;;-4.20;99.90;;;;;;2075073;28;20068;-77
2023/02/06 04:23:33;;;;;;;25.52;13.68;;;-4.20;99.90;;;;;;2076596;28;20017;-77
2023/02/06 04:24:34;;;;;;;24.90;13.38;;;-4.20;99.90;;;;;;2084318;28;20040;-77
2023/02/06 04:25:34;;;;;;;25.00;13.82;;;-4.20;99.90;;;;;;2090673;28;20476;-77
2023/02/06 04:26:36;;;;;;;26.38;13.90;;;-4.20;99.90;;;;;;2090203;28;20032;-77
2023/02/06 04:27:37;;;;;;;27.23;13.70;;;-4.20;99.90;;;;;;2090384;28;20072;-77
2023/02/06 04:28:37;;;;;;;25.70;13.48;;;-4.20;99.90;;;;;;2093453;28;20033;-77
2023/02/06 04:29:38;;;;;;;25.48;13.73;;;-4.10;99.90;;;;;;2083563;28;20031;-77
2023/02/06 04:30:38;;;;;;;25.20;13.85;;;-4.10;99.90;;;;;;2083370;28;20037;-78
2023/02/06 04:31:40;;;;;;;25.60;13.65;;;-4.10;99.90;;;;;;2087263;28;20032;-78
2023/02/06 04:32:40;;;;;;;24.83;13.70;;;-4.10;99.90;;;;;;2094821;28;20081;-77
2023/02/06 04:33:41;;;;;;;25.20;13.98;;;-4.10;99.90;;;;;;2093593;28;20451;-78
2023/02/06 04:34:41;;;;;;;23.00;12.93;;;-4.10;99.90;;;;;;2090100;28;20813;-77
2023/02/06 04:35:42;;;;;;;26.67;14.25;;;-4.10;99.90;;;;;;2085981;28;20037;-76
2023/02/06 04:36:42;;;;;;;25.10;13.63;;;-4.10;99.90;;;;;;2086100;28;20106;-77
2023/02/06 04:37:43;;;;;;;25.63;14.15;;;-4.10;99.90;;;;;;2094734;28;20029;-77
2023/02/06 04:38:43;;;;;;;23.80;13.73;;;-4.10;99.90;;;;;;2084308;28;20026;-77
2023/02/06 04:39:45;;;;;;;25.77;13.52;;;-4.10;99.90;;;;;;2092077;28;20028;-78
2023/02/06 04:40:46;;;;;;;26.75;14.73;;;-4.10;99.90;;;;;;2082882;28;20047;-76
2023/02/06 04:41:46;;;;;;;26.17;14.18;;;-4.10;99.90;;;;;;2064349;28;20795;-77
2023/02/06 04:42:47;;;;;;;26.75;14.63;;;-4.10;99.90;;;;;;2079756;28;20450;-76
2023/02/06 04:43:48;;;;;;;26.75;14.30;;;-4.00;99.90;;;;;;2074687;28;20804;-77
2023/02/06 04:44:48;;;;;;;25.40;14.20;;;-4.00;99.90;;;;;;2076811;28;20107;-76
2023/02/06 04:45:49;;;;;;;26.42;13.55;;;-4.00;99.90;;;;;;2084709;28;20032;-77
2023/02/06 04:46:50;;;;;;;28.17;14.82;;;-4.00;99.90;;;;;;2087338;28;20079;-77
2023/02/06 04:47:50;;;;;;;26.88;14.30;;;-4.00;99.90;;;;;;2078806;28;20040;-77
2023/02/06 04:48:51;;;;;;;28.15;14.65;;;-3.90;99.90;;;;;;2087086;28;20379;-77
2023/02/06 04:49:51;;;;;;;27.40;14.40;;;-3.90;99.90;;;;;;2089240;28;20025;-77
2023/02/06 04:50:52;;;;;;;29.70;16.25;;;-3.90;99.90;;;;;;2071059;28;20617;-77
2023/02/06 04:51:53;;;;;;;25.42;15.45;;;-3.80;99.90;;;;;;2073001;28;20038;-77
2023/02/06 04:52:53;;;;;;;27.85;15.63;;;-3.70;99.90;;;;;;2093799;28;20059;-77
2023/02/06 04:53:54;;;;;;;27.25;14.77;;;-3.70;99.90;;;;;;2080301;28;20033;-77
2023/02/06 04:54:54;;;;;;;28.92;14.82;;;-3.70;99.90;;;;;;2082241;28;20024;-76
2023/02/06 04:56:03;;;;;;;26.30;14.68;;;-3.60;99.90;;;;;;2089363;28;20036;-76
2023/02/06 04:57:04;;;;;;;29.25;14.90;;;-3.70;99.90;;;;;;2081692;28;20828;-77
2023/02/06 04:58:04;;;;;;;27.83;14.90;;;-3.70;99.90;;;;;;2076501;28;20060;-77
2023/02/06 04:59:05;;;;;;;29.20;15.00;;;-3.60;99.90;;;;;;2081574;28;20358;-76
2023/02/06 05:00:08;;;;;;;25.98;14.40;;;-3.60;99.90;;;;;;2076541;28;20731;-77
2023/02/06 05:01:08;;;;;;;25.70;14.65;;;-3.60;99.90;;;;;;2080008;28;20036;-77
2023/02/06 05:02:09;;;;;;;29.02;15.38;;;-3.60;99.90;;;;;;2091073;28;20095;-77
2023/02/06 05:03:09;;;;;;;27.92;15.40;;;-3.30;99.90;;;;;;2091356;28;20048;-77
2023/02/06 05:04:10;;;;;;;27.10;15.07;;;-3.30;99.90;;;;;;2089080;28;20033;-77
2023/02/06 05:05:10;;;;;;;29.67;15.23;;;-3.20;99.90;;;;;;2077478;28;20037;-78
2023/02/06 05:06:11;;;;;;;27.10;15.95;;;-3.10;99.90;;;;;;2080021;28;20033;-77
2023/02/06 05:07:12;;;;;;;27.15;15.23;;;-3.00;99.90;;;;;;2080570;28;20160;-76
2023/02/06 05:08:12;;;;;;;26.25;14.32;;;-3.00;99.90;;;;;;2075536;28;20439;-77
2023/02/06 05:09:14;;;;;;;26.83;14.65;;;-2.90;99.90;;;;;;2075224;28;20543;-77
2023/02/06 05:10:14;;;;;;;28.20;14.43;;;-3.00;99.90;;;;;;2086269;28;20052;-77
2023/02/06 05:11:15;;;;;;;27.33;14.40;;;-3.10;99.90;;;;;;2087457;28;20439;-76
2023/02/06 05:12:16;;;;;;;26.13;14.48;;;-3.10;99.90;;;;;;2082395;28;20060;-78
2023/02/06 05:13:20;;;;;;;26.85;14.15;;;-3.20;99.90;;;;;;2082405;28;20415;-78
2023/02/06 05:14:20;;;;;;;26.75;14.50;;;-3.20;99.90;;;;;;2080015;28;20061;-76
2023/02/06 05:15:21;;;;;;;25.63;13.48;;;-3.30;99.90;;;;;;2072804;28;20029;-76
2023/02/06 05:16:22;;;;;;;24.42;13.88;;;-3.30;99.90;;;;;;2074301;28;20041;-77
2023/02/06 05:17:22;;;;;;;24.92;13.98;;;-3.30;99.90;;;;;;2079066;28;20572;-77
2023/02/06 05:18:23;;;;;;;26.73;13.93;;;-3.30;99.90;;;;;;2071851;28;20494;-77
2023/02/06 05:19:23;;;;;;;24.05;14.15;;;-3.30;99.90;;;;;;2074957;28;20032;-76
2023/02/06 05:20:24;;;;;;;25.23;13.98;;;-3.40;99.90;;;;;;2084551;28;20029;-79
2023/02/06 05:21:26;;;;;;;25.38;13.75;;;-3.40;99.90;;;;;;2086608;28;20056;-76
2023/02/06 05:22:26;;;;;;;26.40;13.73;;;-3.40;99.90;;;;;;2089596;28;20451;-77
2023/02/06 05:23:27;;;;;;;25.58;14.63;;;-3.30;99.90;;;;;;2087612;28;20032;-77
2023/02/06 05:24:27;;;;;;;27.38;14.95;;;-3.30;99.90;;;;;;2081475;28;20040;-77
2023/02/06 05:25:28;;;;;;;27.10;15.60;;;-3.20;99.90;;;;;;2082527;28;20111;-77
2023/02/06 05:26:29;;;;;;;28.23;16.00;;;-3.20;99.90;;;;;;2089944;28;20725;-77